sensor_id;sensor_type;location;lat;lon;timestamp;temperature;humidity
42949;DHT22;28587;46.794;23.594;2022-10-16T00:04:51;23.30;55.00
42949;DHT22;28587;46.794;23.594;2022-10-16T00:09:52;23.30;54.90
42949;DHT22;28587;46.794;23.594;2022-10-16T00:14:53;23.20;54.90
42949;DHT22;28587;46.794;23.594;2022-10-16T00:19:54;23.20;54.90
42949;DHT22;28587;46.794;23.594;2022-10-16T00:24:55;23.20;54.90
42949;DHT22;28587;46.794;23.594;2022-10-16T00:29:56;23.20;54.80
42949;DHT22;28587;46.794;23.594;2022-10-16T00:34:57;23.20;54.90
42949;DHT22;28587;46.794;23.594;2022-10-16T00:39:58;23.20;54.90
42949;DHT22;28587;46.794;23.594;2022-10-16T00:44:59;23.20;54.90
42949;DHT22;28587;46.794;23.594;2022-10-16T00:55:09;23.20;54.90
42949;DHT22;28587;46.794;23.594;2022-10-16T01:00:16;23.20;54.90
42949;DHT22;28587;46.794;23.594;2022-10-16T01:05:18;23.20;54.80
42949;DHT22;28587;46.794;23.594;2022-10-16T01:10:41;23.20;54.90
42949;DHT22;28587;46.794;23.594;2022-10-16T01:21:13;23.20;54.90
42949;DHT22;28587;46.794;23.594;2022-10-16T01:31:39;23.20;54.90
42949;DHT22;28587;46.794;23.594;2022-10-16T01:36:46;23.20;54.80
42949;DHT22;28587;46.794;23.594;2022-10-16T01:41:54;23.20;54.80
42949;DHT22;28587;46.794;23.594;2022-10-16T01:46:57;23.20;54.90
42949;DHT22;28587;46.794;23.594;2022-10-16T01:51:59;23.20;54.90
42949;DHT22;28587;46.794;23.594;2022-10-16T01:57:04;23.20;54.80
42949;DHT22;28587;46.794;23.594;2022-10-16T02:02:09;23.20;54.80
42949;DHT22;28587;46.794;23.594;2022-10-16T02:07:11;23.10;54.70
42949;DHT22;28587;46.794;23.594;2022-10-16T02:12:20;23.10;54.70
42949;DHT22;28587;46.794;23.594;2022-10-16T02:17:23;23.10;54.70
42949;DHT22;28587;46.794;23.594;2022-10-16T02:22:35;23.10;54.70
42949;DHT22;28587;46.794;23.594;2022-10-16T02:28:00;23.10;54.80
42949;DHT22;28587;46.794;23.594;2022-10-16T02:33:05;23.10;54.80
42949;DHT22;28587;46.794;23.594;2022-10-16T02:38:08;23.10;54.80
42949;DHT22;28587;46.794;23.594;2022-10-16T02:43:09;23.10;54.70
42949;DHT22;28587;46.794;23.594;2022-10-16T02:48:11;23.10;54.70
42949;DHT22;28587;46.794;23.594;2022-10-16T02:53:12;23.10;55.00
42949;DHT22;28587;46.794;23.594;2022-10-16T02:58:13;23.10;54.70
42949;DHT22;28587;46.794;23.594;2022-10-16T03:03:14;23.10;54.80
42949;DHT22;28587;46.794;23.594;2022-10-16T03:08:15;23.10;54.80
42949;DHT22;28587;46.794;23.594;2022-10-16T03:13:16;23.10;54.70
42949;DHT22;28587;46.794;23.594;2022-10-16T03:18:17;23.10;54.70
42949;DHT22;28587;46.794;23.594;2022-10-16T03:23:18;23.10;54.80
42949;DHT22;28587;46.794;23.594;2022-10-16T03:28:19;23.10;54.70
42949;DHT22;28587;46.794;23.594;2022-10-16T03:33:20;23.10;54.70
42949;DHT22;28587;46.794;23.594;2022-10-16T03:38:21;23.10;54.80
42949;DHT22;28587;46.794;23.594;2022-10-16T03:43:22;23.10;54.80
42949;DHT22;28587;46.794;23.594;2022-10-16T03:48:23;23.10;54.70
42949;DHT22;28587;46.794;23.594;2022-10-16T03:53:25;23.10;54.70
42949;DHT22;28587;46.794;23.594;2022-10-16T03:58:26;23.10;54.70
42949;DHT22;28587;46.794;23.594;2022-10-16T04:03:27;23.10;54.70
42949;DHT22;28587;46.794;23.594;2022-10-16T04:08:27;23.10;54.60
42949;DHT22;28587;46.794;23.594;2022-10-16T04:13:28;23.00;54.60
42949;DHT22;28587;46.794;23.594;2022-10-16T04:18:29;23.10;54.60
42949;DHT22;28587;46.794;23.594;2022-10-16T04:23:30;23.10;54.70
42949;DHT22;28587;46.794;23.594;2022-10-16T04:28:31;23.10;55.10
42949;DHT22;28587;46.794;23.594;2022-10-16T04:33:33;23.10;55.70
42949;DHT22;28587;46.794;23.594;2022-10-16T04:38:34;23.00;55.10
42949;DHT22;28587;46.794;23.594;2022-10-16T04:43:35;23.10;55.30
42949;DHT22;28587;46.794;23.594;2022-10-16T04:48:36;23.10;55.30
42949;DHT22;28587;46.794;23.594;2022-10-16T04:53:36;23.10;55.30
42949;DHT22;28587;46.794;23.594;2022-10-16T04:58:37;23.00;55.40
42949;DHT22;28587;46.794;23.594;2022-10-16T05:03:38;23.10;55.40
42949;DHT22;28587;46.794;23.594;2022-10-16T05:08:39;23.00;55.40
42949;DHT22;28587;46.794;23.594;2022-10-16T05:13:40;23.10;55.40
42949;DHT22;28587;46.794;23.594;2022-10-16T05:18:41;23.10;55.50
42949;DHT22;28587;46.794;23.594;2022-10-16T05:23:42;23.10;55.90
42949;DHT22;28587;46.794;23.594;2022-10-16T05:28:43;23.10;55.70
42949;DHT22;28587;46.794;23.594;2022-10-16T05:33:44;23.20;55.80
42949;DHT22;28587;46.794;23.594;2022-10-16T05:38:45;23.20;56.10
42949;DHT22;28587;46.794;23.594;2022-10-16T05:43:47;23.20;56.10
42949;DHT22;28587;46.794;23.594;2022-10-16T05:48:51;23.20;56.30
42949;DHT22;28587;46.794;23.594;2022-10-16T05:53:52;23.20;56.00
42949;DHT22;28587;46.794;23.594;2022-10-16T05:58:53;23.20;55.80
42949;DHT22;28587;46.794;23.594;2022-10-16T06:03:53;23.30;56.20
42949;DHT22;28587;46.794;23.594;2022-10-16T06:08:55;23.30;56.00
42949;DHT22;28587;46.794;23.594;2022-10-16T06:13:58;23.30;55.90
42949;DHT22;28587;46.794;23.594;2022-10-16T06:19:00;23.30;59.00
42949;DHT22;28587;46.794;23.594;2022-10-16T06:24:01;23.30;57.60
42949;DHT22;28587;46.794;23.594;2022-10-16T06:29:02;23.30;58.00
42949;DHT22;28587;46.794;23.594;2022-10-16T06:34:03;23.30;58.40
42949;DHT22;28587;46.794;23.594;2022-10-16T06:39:06;23.30;58.50
42949;DHT22;28587;46.794;23.594;2022-10-16T06:44:10;23.30;58.50
42949;DHT22;28587;46.794;23.594;2022-10-16T06:49:11;23.30;58.70
42949;DHT22;28587;46.794;23.594;2022-10-16T06:54:12;23.30;58.30
42949;DHT22;28587;46.794;23.594;2022-10-16T06:59:13;23.30;58.10
42949;DHT22;28587;46.794;23.594;2022-10-16T07:04:14;23.30;57.70
42949;DHT22;28587;46.794;23.594;2022-10-16T07:09:15;23.30;57.80
42949;DHT22;28587;46.794;23.594;2022-10-16T07:14:17;23.30;57.90
42949;DHT22;28587;46.794;23.594;2022-10-16T07:19:18;23.40;57.70
42949;DHT22;28587;46.794;23.594;2022-10-16T07:24:19;23.40;58.20
42949;DHT22;28587;46.794;23.594;2022-10-16T07:29:21;23.40;58.60
42949;DHT22;28587;46.794;23.594;2022-10-16T07:34:22;23.40;58.50
42949;DHT22;28587;46.794;23.594;2022-10-16T07:39:23;23.40;58.10
42949;DHT22;28587;46.794;23.594;2022-10-16T07:44:24;23.50;57.20
42949;DHT22;28587;46.794;23.594;2022-10-16T07:49:25;23.60;57.40
42949;DHT22;28587;46.794;23.594;2022-10-16T07:54:26;23.60;57.50
42949;DHT22;28587;46.794;23.594;2022-10-16T07:59:27;23.60;57.40
42949;DHT22;28587;46.794;23.594;2022-10-16T08:04:28;23.60;56.30
42949;DHT22;28587;46.794;23.594;2022-10-16T08:09:29;23.60;55.20
42949;DHT22;28587;46.794;23.594;2022-10-16T08:14:30;23.60;51.80
42949;DHT22;28587;46.794;23.594;2022-10-16T08:19:31;23.50;49.90
42949;DHT22;28587;46.794;23.594;2022-10-16T08:24:34;23.50;50.10
42949;DHT22;28587;46.794;23.594;2022-10-16T08:29:37;23.40;49.10
42949;DHT22;28587;46.794;23.594;2022-10-16T08:34:39;23.50;48.70
42949;DHT22;28587;46.794;23.594;2022-10-16T08:39:39;23.50;47.50
42949;DHT22;28587;46.794;23.594;2022-10-16T08:50:27;23.40;49.60
42949;DHT22;28587;46.794;23.594;2022-10-16T09:00:31;23.40;51.30
42949;DHT22;28587;46.794;23.594;2022-10-16T09:16:41;23.40;52.40
42949;DHT22;28587;46.794;23.594;2022-10-16T09:21:47;23.40;52.60
42949;DHT22;28587;46.794;23.594;2022-10-16T09:26:48;23.40;51.90
42949;DHT22;28587;46.794;23.594;2022-10-16T09:31:49;23.30;48.40
42949;DHT22;28587;46.794;23.594;2022-10-16T09:36:51;23.30;47.70
42949;DHT22;28587;46.794;23.594;2022-10-16T09:41:52;23.30;47.60
42949;DHT22;28587;46.794;23.594;2022-10-16T09:47:18;23.30;47.30
42949;DHT22;28587;46.794;23.594;2022-10-16T09:52:21;23.30;47.10
42949;DHT22;28587;46.794;23.594;2022-10-16T09:57:22;23.30;46.80
42949;DHT22;28587;46.794;23.594;2022-10-16T10:02:36;23.30;47.20
42949;DHT22;28587;46.794;23.594;2022-10-16T10:07:43;23.20;47.50
42949;DHT22;28587;46.794;23.594;2022-10-16T10:12:46;23.20;46.60
42949;DHT22;28587;46.794;23.594;2022-10-16T10:22:50;23.20;46.60
42949;DHT22;28587;46.794;23.594;2022-10-16T10:49:36;23.20;48.60
42949;DHT22;28587;46.794;23.594;2022-10-16T10:54:54;23.20;48.40
42949;DHT22;28587;46.794;23.594;2022-10-16T11:00:12;23.30;49.00
42949;DHT22;28587;46.794;23.594;2022-10-16T11:05:43;23.20;48.60
42949;DHT22;28587;46.794;23.594;2022-10-16T11:11:02;23.20;48.70
42949;DHT22;28587;46.794;23.594;2022-10-16T11:16:30;23.20;48.70
42949;DHT22;28587;46.794;23.594;2022-10-16T11:21:39;23.30;49.10
42949;DHT22;28587;46.794;23.594;2022-10-16T11:26:43;23.30;48.90
42949;DHT22;28587;46.794;23.594;2022-10-16T11:31:49;23.30;49.10
42949;DHT22;28587;46.794;23.594;2022-10-16T11:36:58;23.30;49.60
42949;DHT22;28587;46.794;23.594;2022-10-16T11:42:11;23.30;51.10
42949;DHT22;28587;46.794;23.594;2022-10-16T11:52:53;23.60;58.00
42949;DHT22;28587;46.794;23.594;2022-10-16T11:58:08;23.70;57.30
42949;DHT22;28587;46.794;23.594;2022-10-16T12:08:19;23.70;54.50
42949;DHT22;28587;46.794;23.594;2022-10-16T12:13:40;23.70;53.10
42949;DHT22;28587;46.794;23.594;2022-10-16T12:18:43;23.70;51.50
42949;DHT22;28587;46.794;23.594;2022-10-16T12:23:50;23.60;50.20
42949;DHT22;28587;46.794;23.594;2022-10-16T12:28:51;23.70;49.50
42949;DHT22;28587;46.794;23.594;2022-10-16T12:34:01;23.60;49.40
42949;DHT22;28587;46.794;23.594;2022-10-16T12:39:02;23.70;49.10
42949;DHT22;28587;46.794;23.594;2022-10-16T12:44:03;23.70;49.30
42949;DHT22;28587;46.794;23.594;2022-10-16T12:49:36;23.60;49.00
42949;DHT22;28587;46.794;23.594;2022-10-16T12:54:38;23.60;49.30
42949;DHT22;28587;46.794;23.594;2022-10-16T13:10:25;23.70;48.20
42949;DHT22;28587;46.794;23.594;2022-10-16T13:15:47;23.70;48.10
42949;DHT22;28587;46.794;23.594;2022-10-16T13:31:24;23.60;47.50
42949;DHT22;28587;46.794;23.594;2022-10-16T13:36:42;23.70;47.80
42949;DHT22;28587;46.794;23.594;2022-10-16T13:41:44;23.70;48.50
42949;DHT22;28587;46.794;23.594;2022-10-16T13:46:45;23.70;49.00
42949;DHT22;28587;46.794;23.594;2022-10-16T13:51:57;23.70;49.00
42949;DHT22;28587;46.794;23.594;2022-10-16T13:57:05;23.80;49.30
42949;DHT22;28587;46.794;23.594;2022-10-16T14:07:32;23.80;49.50
42949;DHT22;28587;46.794;23.594;2022-10-16T14:12:34;23.80;49.60
42949;DHT22;28587;46.794;23.594;2022-10-16T14:17:35;23.80;49.80
42949;DHT22;28587;46.794;23.594;2022-10-16T14:22:39;23.80;49.90
42949;DHT22;28587;46.794;23.594;2022-10-16T14:27:43;23.80;50.10
42949;DHT22;28587;46.794;23.594;2022-10-16T14:32:59;23.80;50.10
42949;DHT22;28587;46.794;23.594;2022-10-16T14:38:01;23.80;50.30
42949;DHT22;28587;46.794;23.594;2022-10-16T14:43:04;23.80;50.40
42949;DHT22;28587;46.794;23.594;2022-10-16T14:48:16;23.80;50.40
42949;DHT22;28587;46.794;23.594;2022-10-16T14:53:18;23.70;50.50
42949;DHT22;28587;46.794;23.594;2022-10-16T14:58:21;23.70;50.60
42949;DHT22;28587;46.794;23.594;2022-10-16T15:03:23;23.70;50.60
42949;DHT22;28587;46.794;23.594;2022-10-16T15:08:24;23.70;50.80
42949;DHT22;28587;46.794;23.594;2022-10-16T15:13:25;23.80;50.80
42949;DHT22;28587;46.794;23.594;2022-10-16T15:18:25;23.80;50.80
42949;DHT22;28587;46.794;23.594;2022-10-16T15:23:26;23.80;50.80
42949;DHT22;28587;46.794;23.594;2022-10-16T15:28:27;23.80;50.90
42949;DHT22;28587;46.794;23.594;2022-10-16T15:33:28;23.80;52.60
42949;DHT22;28587;46.794;23.594;2022-10-16T15:38:33;23.80;52.50
42949;DHT22;28587;46.794;23.594;2022-10-16T15:43:34;23.70;52.70
42949;DHT22;28587;46.794;23.594;2022-10-16T15:48:35;23.70;52.80
42949;DHT22;28587;46.794;23.594;2022-10-16T15:53:36;23.70;53.90
42949;DHT22;28587;46.794;23.594;2022-10-16T15:58:38;23.70;53.70
42949;DHT22;28587;46.794;23.594;2022-10-16T16:03:39;23.70;53.40
42949;DHT22;28587;46.794;23.594;2022-10-16T16:08:41;23.70;53.20
42949;DHT22;28587;46.794;23.594;2022-10-16T16:13:42;23.80;55.30
42949;DHT22;28587;46.794;23.594;2022-10-16T16:18:43;23.90;58.80
42949;DHT22;28587;46.794;23.594;2022-10-16T16:23:44;24.10;59.70
42949;DHT22;28587;46.794;23.594;2022-10-16T16:28:45;24.10;57.90
42949;DHT22;28587;46.794;23.594;2022-10-16T16:33:46;24.10;56.90
42949;DHT22;28587;46.794;23.594;2022-10-16T16:38:47;24.10;56.60
42949;DHT22;28587;46.794;23.594;2022-10-16T16:43:48;24.10;56.90
42949;DHT22;28587;46.794;23.594;2022-10-16T16:48:49;24.10;57.60
42949;DHT22;28587;46.794;23.594;2022-10-16T16:53:53;24.10;59.60
42949;DHT22;28587;46.794;23.594;2022-10-16T16:58:55;24.10;58.50
42949;DHT22;28587;46.794;23.594;2022-10-16T17:03:57;24.10;57.00
42949;DHT22;28587;46.794;23.594;2022-10-16T17:09:00;24.10;55.20
42949;DHT22;28587;46.794;23.594;2022-10-16T17:14:03;24.00;54.10
42949;DHT22;28587;46.794;23.594;2022-10-16T17:19:09;24.10;54.00
42949;DHT22;28587;46.794;23.594;2022-10-16T17:24:11;24.00;54.70
42949;DHT22;28587;46.794;23.594;2022-10-16T17:29:12;24.10;62.40
42949;DHT22;28587;46.794;23.594;2022-10-16T17:34:13;24.10;66.30
42949;DHT22;28587;46.794;23.594;2022-10-16T17:39:15;24.10;63.70
42949;DHT22;28587;46.794;23.594;2022-10-16T17:44:17;24.10;58.70
42949;DHT22;28587;46.794;23.594;2022-10-16T17:49:21;24.10;60.30
42949;DHT22;28587;46.794;23.594;2022-10-16T17:54:22;24.00;59.00
42949;DHT22;28587;46.794;23.594;2022-10-16T17:59:23;24.00;58.40
42949;DHT22;28587;46.794;23.594;2022-10-16T18:04:23;24.00;57.90
42949;DHT22;28587;46.794;23.594;2022-10-16T18:09:25;24.00;57.20
42949;DHT22;28587;46.794;23.594;2022-10-16T18:14:27;24.00;57.10
42949;DHT22;28587;46.794;23.594;2022-10-16T18:19:28;23.90;56.90
42949;DHT22;28587;46.794;23.594;2022-10-16T18:24:29;23.90;56.60
42949;DHT22;28587;46.794;23.594;2022-10-16T18:29:30;23.90;55.90
42949;DHT22;28587;46.794;23.594;2022-10-16T18:34:32;23.90;56.50
42949;DHT22;28587;46.794;23.594;2022-10-16T18:39:36;24.00;65.00
42949;DHT22;28587;46.794;23.594;2022-10-16T18:44:37;24.10;67.40
42949;DHT22;28587;46.794;23.594;2022-10-16T18:49:38;24.00;68.10
42949;DHT22;28587;46.794;23.594;2022-10-16T18:54:39;24.10;71.70
42949;DHT22;28587;46.794;23.594;2022-10-16T18:59:40;24.10;70.70
42949;DHT22;28587;46.794;23.594;2022-10-16T19:04:41;24.10;68.30
42949;DHT22;28587;46.794;23.594;2022-10-16T19:09:42;24.10;72.40
42949;DHT22;28587;46.794;23.594;2022-10-16T19:14:43;24.00;73.10
42949;DHT22;28587;46.794;23.594;2022-10-16T19:19:44;24.00;71.70
42949;DHT22;28587;46.794;23.594;2022-10-16T19:24:45;24.00;68.00
42949;DHT22;28587;46.794;23.594;2022-10-16T19:29:46;24.00;64.50
42949;DHT22;28587;46.794;23.594;2022-10-16T19:34:49;24.00;63.50
42949;DHT22;28587;46.794;23.594;2022-10-16T19:39:50;24.00;62.30
42949;DHT22;28587;46.794;23.594;2022-10-16T19:44:51;24.10;60.10
42949;DHT22;28587;46.794;23.594;2022-10-16T19:49:52;24.10;59.80
42949;DHT22;28587;46.794;23.594;2022-10-16T19:54:54;24.10;57.80
42949;DHT22;28587;46.794;23.594;2022-10-16T19:59:57;24.00;55.80
42949;DHT22;28587;46.794;23.594;2022-10-16T20:04:58;24.00;55.40
42949;DHT22;28587;46.794;23.594;2022-10-16T20:09:59;23.90;55.00
42949;DHT22;28587;46.794;23.594;2022-10-16T20:15:00;23.90;54.70
42949;DHT22;28587;46.794;23.594;2022-10-16T20:20:02;23.80;55.30
42949;DHT22;28587;46.794;23.594;2022-10-16T20:25:03;23.80;55.60
42949;DHT22;28587;46.794;23.594;2022-10-16T20:30:05;23.80;55.80
42949;DHT22;28587;46.794;23.594;2022-10-16T20:35:06;23.80;55.90
42949;DHT22;28587;46.794;23.594;2022-10-16T20:40:07;23.70;55.90
42949;DHT22;28587;46.794;23.594;2022-10-16T20:45:09;23.80;56.10
42949;DHT22;28587;46.794;23.594;2022-10-16T20:50:10;23.70;56.00
42949;DHT22;28587;46.794;23.594;2022-10-16T20:55:11;23.70;56.00
42949;DHT22;28587;46.794;23.594;2022-10-16T21:00:13;23.80;56.10
42949;DHT22;28587;46.794;23.594;2022-10-16T21:05:14;23.70;56.00
42949;DHT22;28587;46.794;23.594;2022-10-16T21:10:15;23.70;56.10
42949;DHT22;28587;46.794;23.594;2022-10-16T21:15:16;23.70;56.10
42949;DHT22;28587;46.794;23.594;2022-10-16T21:20:17;23.70;56.10
42949;DHT22;28587;46.794;23.594;2022-10-16T21:25:18;23.80;56.10
42949;DHT22;28587;46.794;23.594;2022-10-16T21:30:19;23.80;56.00
42949;DHT22;28587;46.794;23.594;2022-10-16T21:35:20;23.80;55.90
42949;DHT22;28587;46.794;23.594;2022-10-16T21:40:21;23.80;56.00
42949;DHT22;28587;46.794;23.594;2022-10-16T21:45:22;23.80;55.80
42949;DHT22;28587;46.794;23.594;2022-10-16T21:50:23;23.80;55.90
42949;DHT22;28587;46.794;23.594;2022-10-16T21:55:24;23.80;55.90
42949;DHT22;28587;46.794;23.594;2022-10-16T22:00:25;23.80;55.90
42949;DHT22;28587;46.794;23.594;2022-10-16T22:05:26;23.80;55.90
42949;DHT22;28587;46.794;23.594;2022-10-16T22:10:27;23.80;55.80
42949;DHT22;28587;46.794;23.594;2022-10-16T22:15:28;23.80;55.90
42949;DHT22;28587;46.794;23.594;2022-10-16T22:20:29;23.80;55.90
42949;DHT22;28587;46.794;23.594;2022-10-16T22:25:30;23.80;56.00
42949;DHT22;28587;46.794;23.594;2022-10-16T22:30:37;23.80;55.90
42949;DHT22;28587;46.794;23.594;2022-10-16T22:35:39;23.80;56.00
42949;DHT22;28587;46.794;23.594;2022-10-16T22:40:40;23.80;56.10
42949;DHT22;28587;46.794;23.594;2022-10-16T22:45:41;23.80;56.10
42949;DHT22;28587;46.794;23.594;2022-10-16T22:50:42;23.80;56.10
42949;DHT22;28587;46.794;23.594;2022-10-16T22:55:43;23.70;55.90
42949;DHT22;28587;46.794;23.594;2022-10-16T23:00:44;23.70;55.70
42949;DHT22;28587;46.794;23.594;2022-10-16T23:05:45;23.70;55.70
42949;DHT22;28587;46.794;23.594;2022-10-16T23:10:46;23.70;55.70
42949;DHT22;28587;46.794;23.594;2022-10-16T23:15:47;23.70;55.80
42949;DHT22;28587;46.794;23.594;2022-10-16T23:20:48;23.60;56.20
42949;DHT22;28587;46.794;23.594;2022-10-16T23:25:49;23.60;55.60
42949;DHT22;28587;46.794;23.594;2022-10-16T23:30:50;23.60;55.60
42949;DHT22;28587;46.794;23.594;2022-10-16T23:35:51;23.60;55.60
42949;DHT22;28587;46.794;23.594;2022-10-16T23:40:52;23.60;55.60
42949;DHT22;28587;46.794;23.594;2022-10-16T23:45:53;23.60;56.10
42949;DHT22;28587;46.794;23.594;2022-10-16T23:50:54;23.60;55.60
42949;DHT22;28587;46.794;23.594;2022-10-16T23:55:55;23.60;55.60
